Davie, FL (33355)

10:48 AM EST on February 08, 2016 (GMT -0500)
Auboretum | | Change Station
CLOSE
Current Station
Personal Weather Station
Location: Davie, FL
Elevation: 23 ft
Nearby Weather Stations

Elev 23 ft 26.11 °N, 80.32 °W | Updated 13 minutes ago

Clear
Clear
61.7 °F
Feels Like 61.7 °F
N
9.4
Wind Variable Wind from West

Today
High -- | Low -- °F
--% Chance of Precip.
Yesterday
High -- | Low -- °F
Precip. -- in
Pressure 30.15 in
Visibility 10.0 miles
Clouds Few 30000 ft
Dew Point 39 °F
Humidity 43%
Rainfall 0.00 in
Snow Depth Not available.
7:01 AM 6:09 PM
New Moon, 0% visible
METAR KFLL 081453Z 30007KT 10SM FEW300 14/02 A3015 RMK AO2 SLP209 T01440017 53014
Pressure 30.15 in
Visibility 10.0 miles
Clouds Few 30000 ft
Dew Point 39 °F
Humidity 43%
Rainfall 0.00 in
Snow Depth Not available.
7:01 AM 6:09 PM
New Moon, 0% visible
METAR KFLL 081453Z 30007KT 10SM FEW300 14/02 A3015 RMK AO2 SLP209 T01440017 53014

10-Day Weather Forecast

Almanac

Astronomy

Feb. 08, 2016 Rise Set
Actual Time
Civil Twilight
Nautical Twilight
Astronomical Twilight
Moon
Length of Visible Light
Length of Day
Tomorrow will be .
, % of the Moon is Illuminated

Today's Extremes

State Highs State Lows

Community

WunderPhotos

Upload Photos

1,891,440 photos uploaded!

WunderBlog® & News

Nearby

Air Quality

  Air Quality AQ Index Pollutant
Not available.

Snow Depth

Station Depth Elevation

Earthquake Activity

City Distance Mag. Time & Date
Minimum magnitude displayed is 2.5.

Coastal Water Temperatures

Place Temperature

Stations

Nearby Weather Stations

Station Location Temp. Windchill Dew Point Humidity Wind Precip. Elev Updated Type
                   

Watches & Warnings

There are currently no watches in effect.